C07

Mack Mesa Airport

Mack, Colorado, USA
METAR KC07 210548Z AUTO 26003KT 10SM CLR M02/M15 A3032 RMK AO2
Observed Flight Rules
Nov-21 @ 05:48 UTC (13 minutes ago) Visual Flight Rules
Wind Visibility Clouds
260° at 3 knots 10 miles
  • Clear skies
Temperatures Readings
Current -2°C / 28°F
Dewpoint -15°C / 5°F
Humidity 37%
Altimeter 30.32" Hg
Pressure 1027 hPa
Elevation 3224
METAR KC07 210548Z AUTO 26003KT 10SM CLR M02/M15 A3032 RMK AO2
Observed Flight Rules
Nov-21 @ 05:48 UTC
(13 minutes ago)
VFR
Wind Visibility
260° at 3 knots 10 miles
Clouds
  • Clear skies
Temperature Dewpoint
-2°C / 28°F -15°C / 5°F
Humidity Altimeter Pressure
37% 30.32" Hg 1027 hPa